createdAt,value
2022-11-19T00:01:14.415Z,61.23
2022-11-19T00:02:51.898Z,61.41
2022-11-19T00:05:17.028Z,61.79
2022-11-19T00:07:08.175Z,61.80
2022-11-19T00:11:09.464Z,62.03
2022-11-19T00:12:54.231Z,62.01
2022-11-19T00:14:35.823Z,62.13
2022-11-19T00:16:34.438Z,62.01
2022-11-19T00:18:19.356Z,62.36
2022-11-19T00:20:17.259Z,62.38
2022-11-19T00:22:11.688Z,62.58
2022-11-19T00:27:18.100Z,62.43
2022-11-19T00:28:41.803Z,62.11
2022-11-19T00:30:19.942Z,62.27
2022-11-19T00:32:25.673Z,62.21
2022-11-19T00:33:59.580Z,62.38
2022-11-19T00:35:44.619Z,61.87
2022-11-19T00:37:24.792Z,62.02
2022-11-19T00:39:12.996Z,61.90
2022-11-19T00:42:30.536Z,61.86
2022-11-19T00:43:14.153Z,61.76
2022-11-19T00:47:06.695Z,61.18
2022-11-19T00:48:31.807Z,61.38
2022-11-19T00:50:01.646Z,61.25
2022-11-19T00:51:39.725Z,61.34
2022-11-19T00:53:03.220Z,61.37
2022-11-19T00:54:33.690Z,61.14
2022-11-19T00:56:03.764Z,61.03
2022-11-19T00:57:27.992Z,61.03
2022-11-19T00:58:58.105Z,60.73
2022-11-19T01:00:23.459Z,60.92
2022-11-19T01:01:55.955Z,60.55
2022-11-19T01:03:29.530Z,60.88
2022-11-19T01:05:07.040Z,60.98
2022-11-19T01:06:36.525Z,60.85
2022-11-19T01:08:05.504Z,60.49
2022-11-19T01:09:30.994Z,60.71
2022-11-19T01:10:54.913Z,60.80
2022-11-19T01:12:24.505Z,60.62
2022-11-19T01:13:59.586Z,60.57
2022-11-19T01:15:26.031Z,60.59
2022-11-19T01:16:54.835Z,60.69
2022-11-19T01:18:18.088Z,60.67
2022-11-19T01:19:56.582Z,60.71
2022-11-19T01:21:25.770Z,60.59
2022-11-19T01:22:51.878Z,60.99
2022-11-19T01:24:14.723Z,60.76
2022-11-19T01:25:39.806Z,60.54
2022-11-19T01:27:02.207Z,60.68
2022-11-19T01:28:23.278Z,60.68
2022-11-19T01:29:47.834Z,60.67
2022-11-19T01:31:12.552Z,60.53
2022-11-19T01:32:39.532Z,60.60
2022-11-19T01:34:02.194Z,60.50
2022-11-19T01:35:28.819Z,60.90
2022-11-19T01:36:51.332Z,60.83
2022-11-19T01:38:15.135Z,60.67
2022-11-19T01:39:37.315Z,60.74
2022-11-19T01:40:58.560Z,60.68
2022-11-19T01:42:40.914Z,60.78
2022-11-19T01:44:05.188Z,60.82
2022-11-19T01:45:33.436Z,60.58
2022-11-19T01:46:58.222Z,60.73
2022-11-19T01:48:25.600Z,60.52
2022-11-19T01:49:46.603Z,60.72
2022-11-19T01:51:16.071Z,60.60
2022-11-19T01:52:36.867Z,60.71
2022-11-19T01:54:01.848Z,60.58
2022-11-19T01:55:24.531Z,60.70
2022-11-19T01:56:46.872Z,60.66
2022-11-19T01:58:08.031Z,60.75
2022-11-19T01:59:32.640Z,60.71
2022-11-19T02:00:53.593Z,60.46
2022-11-19T02:02:15.532Z,60.76
2022-11-19T02:03:42.215Z,60.49
2022-11-19T02:05:05.643Z,60.78
2022-11-19T02:06:33.104Z,60.97
2022-11-19T02:07:57.086Z,60.97
2022-11-19T02:09:19.869Z,60.72
2022-11-19T02:10:52.968Z,60.90
2022-11-19T02:12:26.149Z,60.54
2022-11-19T02:14:03.081Z,60.48
2022-11-19T02:15:39.832Z,60.43
2022-11-19T02:17:11.934Z,60.61
2022-11-19T02:18:44.031Z,60.83
2022-11-19T02:20:32.092Z,60.76
2022-11-19T02:22:13.413Z,60.54
2022-11-19T02:24:02.727Z,60.75
2022-11-19T02:25:39.841Z,60.65
2022-11-19T02:27:34.208Z,60.75
2022-11-19T02:29:11.111Z,60.64
2022-11-19T02:30:38.873Z,60.59
2022-11-19T02:32:05.144Z,60.77
2022-11-19T02:33:37.465Z,60.71
2022-11-19T02:35:02.270Z,60.90
2022-11-19T02:36:28.245Z,60.49
2022-11-19T02:37:58.906Z,60.77
2022-11-19T02:39:33.755Z,60.65
2022-11-19T02:40:59.767Z,60.50
2022-11-19T02:42:28.550Z,60.38
2022-11-19T02:44:21.287Z,60.46
2022-11-19T02:45:49.253Z,60.42
2022-11-19T02:47:20.416Z,60.35
2022-11-19T02:48:48.299Z,60.24
2022-11-19T02:50:12.828Z,60.26
2022-11-19T02:51:39.238Z,60.52
2022-11-19T02:53:08.144Z,60.27
2022-11-19T02:54:36.596Z,60.29
2022-11-19T02:56:18.189Z,60.31
2022-11-19T02:57:42.936Z,60.19
2022-11-19T02:59:26.556Z,60.08
2022-11-19T03:01:10.591Z,60.18
2022-11-19T03:02:55.838Z,60.45
2022-11-19T03:04:33.125Z,60.36
2022-11-19T03:06:15.699Z,60.16
2022-11-19T03:07:45.310Z,60.14
2022-11-19T03:09:09.327Z,59.91
2022-11-19T03:10:41.392Z,59.94
2022-11-19T03:12:11.853Z,60.08
2022-11-19T03:14:00.700Z,60.24
2022-11-19T03:15:56.324Z,60.17
2022-11-19T03:17:26.975Z,60.25
2022-11-19T03:18:56.006Z,60.03
2022-11-19T03:20:33.206Z,60.22
2022-11-19T03:22:01.157Z,60.21
2022-11-19T03:23:36.738Z,60.25
2022-11-19T03:25:15.075Z,60.06
2022-11-19T03:26:43.602Z,60.09
2022-11-19T03:28:21.175Z,59.72
2022-11-19T03:30:17.175Z,59.62
2022-11-19T03:32:21.302Z,59.31
2022-11-19T03:34:15.330Z,59.10
2022-11-19T03:35:48.309Z,59.08
2022-11-19T03:37:19.936Z,58.87
2022-11-19T03:38:44.993Z,58.69
2022-11-19T03:40:16.237Z,58.25
2022-11-19T03:41:40.847Z,58.47
2022-11-19T03:43:09.273Z,58.20
2022-11-19T03:44:40.084Z,58.12
2022-11-19T03:46:04.753Z,57.81
2022-11-19T03:47:35.481Z,57.64
2022-11-19T03:49:01.493Z,57.24
2022-11-19T03:50:30.145Z,56.92
2022-11-19T03:51:57.916Z,56.86
2022-11-19T03:53:22.112Z,56.71
2022-11-19T03:54:43.875Z,56.45
2022-11-19T03:56:10.727Z,56.03
2022-11-19T03:57:34.460Z,56.18
2022-11-19T03:58:59.123Z,55.79
2022-11-19T04:00:21.678Z,55.32
2022-11-19T04:01:45.153Z,55.28
2022-11-19T04:03:15.245Z,55.30
2022-11-19T04:04:38.889Z,55.17
2022-11-19T04:06:01.558Z,54.87
2022-11-19T04:07:25.300Z,54.95
2022-11-19T04:08:47.672Z,55.06
2022-11-19T04:10:10.372Z,54.92
2022-11-19T04:11:31.461Z,54.71
2022-11-19T04:12:53.764Z,55.08
2022-11-19T04:14:14.495Z,55.28
2022-11-19T04:15:36.585Z,54.98
2022-11-19T04:16:57.800Z,55.14
2022-11-19T04:18:20.346Z,55.21
2022-11-19T04:19:44.649Z,55.31
2022-11-19T04:21:05.780Z,55.15
2022-11-19T04:22:28.427Z,55.45
2022-11-19T04:23:49.648Z,55.30
2022-11-19T04:25:12.064Z,55.28
2022-11-19T04:26:33.097Z,55.51
2022-11-19T04:27:59.263Z,55.28
2022-11-19T04:29:25.426Z,55.57
2022-11-19T04:30:47.804Z,55.50
2022-11-19T04:32:09.136Z,55.71
2022-11-19T04:33:31.691Z,55.59
2022-11-19T04:34:55.732Z,55.97
2022-11-19T04:36:17.155Z,55.62
2022-11-19T04:37:39.500Z,56.02
2022-11-19T04:39:01.116Z,55.95
2022-11-19T04:40:23.287Z,55.72
2022-11-19T04:41:45.460Z,56.07
2022-11-19T04:43:06.644Z,55.75
2022-11-19T04:44:29.495Z,56.18
2022-11-19T04:45:50.632Z,55.94
2022-11-19T04:47:13.094Z,56.24
2022-11-19T04:48:34.533Z,56.45
2022-11-19T04:49:58.522Z,56.48
2022-11-19T04:51:20.121Z,56.71
2022-11-19T04:52:42.559Z,56.60
2022-11-19T04:54:04.185Z,57.09
2022-11-19T04:55:26.473Z,56.63
2022-11-19T04:56:48.861Z,56.88
2022-11-19T04:58:10.812Z,57.31
2022-11-19T04:59:33.241Z,57.12
2022-11-19T05:00:54.013Z,57.07
2022-11-19T05:02:16.090Z,57.50
2022-11-19T05:03:38.167Z,57.53
2022-11-19T05:05:00.676Z,57.54
2022-11-19T05:06:22.656Z,57.64
2022-11-19T05:07:43.806Z,57.97
2022-11-19T05:09:08.057Z,58.06
2022-11-19T05:10:29.280Z,58.58
2022-11-19T05:11:51.845Z,58.37
2022-11-19T05:13:13.573Z,58.61
2022-11-19T05:14:38.512Z,58.72
2022-11-19T05:16:01.027Z,58.82
2022-11-19T05:17:22.312Z,59.07
2022-11-19T05:18:44.598Z,58.85
2022-11-19T05:20:09.397Z,59.24
2022-11-19T05:21:31.791Z,59.10
2022-11-19T05:22:53.032Z,59.27
2022-11-19T05:24:15.762Z,59.51
2022-11-19T05:25:36.925Z,59.42
2022-11-19T05:26:59.361Z,59.62
2022-11-19T05:28:37.510Z,59.43
2022-11-19T05:30:01.066Z,59.71
2022-11-19T05:31:23.625Z,59.86
2022-11-19T05:32:45.159Z,59.89
2022-11-19T05:34:07.524Z,60.13
2022-11-19T05:35:31.179Z,60.29
2022-11-19T05:36:52.497Z,60.13
2022-11-19T05:38:14.967Z,60.58
2022-11-19T05:39:35.948Z,60.51
2022-11-19T05:40:58.175Z,60.21
2022-11-19T05:42:18.757Z,60.29
2022-11-19T05:43:40.768Z,60.39
2022-11-19T05:45:02.551Z,60.58
2022-11-19T05:46:24.868Z,60.80
2022-11-19T05:47:48.733Z,60.79
2022-11-19T05:49:12.658Z,61.00
2022-11-19T05:50:36.789Z,61.23
2022-11-19T05:51:57.874Z,61.15
2022-11-19T05:53:20.145Z,61.38
2022-11-19T05:54:41.923Z,61.62
2022-11-19T05:56:04.663Z,61.36
2022-11-19T05:57:27.757Z,61.74
2022-11-19T05:58:51.279Z,61.84
2022-11-19T06:00:16.838Z,61.91
2022-11-19T06:01:39.559Z,61.86
2022-11-19T06:03:04.204Z,61.98
2022-11-19T06:04:28.203Z,62.22
2022-11-19T06:05:58.244Z,61.89
2022-11-19T06:07:19.741Z,62.36
2022-11-19T06:08:45.713Z,62.19
2022-11-19T06:10:09.224Z,62.53
2022-11-19T06:11:51.672Z,62.43
2022-11-19T06:13:14.004Z,62.50
2022-11-19T06:14:37.555Z,62.34
2022-11-19T06:16:00.038Z,62.49
2022-11-19T06:17:22.092Z,62.47
2022-11-19T06:18:44.256Z,62.87
2022-11-19T06:20:09.004Z,62.08
2022-11-19T06:21:33.433Z,62.87
2022-11-19T06:22:55.737Z,62.85
2022-11-19T06:24:17.559Z,62.73
2022-11-19T06:25:39.783Z,63.20
2022-11-19T06:27:00.726Z,62.90
2022-11-19T06:28:23.166Z,62.88
2022-11-19T06:29:45.545Z,63.35
2022-11-19T06:31:11.352Z,63.16
2022-11-19T06:32:33.689Z,63.36
2022-11-19T06:33:56.257Z,63.44
2022-11-19T06:35:43.435Z,63.28
2022-11-19T06:37:20.028Z,63.53
2022-11-19T06:38:43.862Z,63.32
2022-11-19T06:40:10.431Z,63.68
2022-11-19T06:41:33.494Z,63.63
2022-11-19T06:42:55.969Z,63.56
2022-11-19T06:44:20.660Z,63.63
2022-11-19T06:45:50.265Z,63.66
2022-11-19T06:47:14.479Z,63.80
2022-11-19T06:48:40.448Z,63.71
2022-11-19T06:50:05.437Z,63.93
2022-11-19T06:51:32.722Z,63.92
2022-11-19T06:52:56.960Z,64.19
2022-11-19T06:54:18.389Z,63.93
2022-11-19T06:55:41.119Z,63.80
2022-11-19T06:57:09.080Z,63.67
2022-11-19T06:58:32.484Z,64.06
2022-11-19T07:00:12.887Z,63.80
2022-11-19T07:01:41.193Z,63.63
2022-11-19T07:03:06.860Z,63.94
2022-11-19T07:04:38.097Z,64.07
2022-11-19T07:06:06.572Z,64.02
2022-11-19T07:07:32.334Z,63.94
2022-11-19T07:08:57.241Z,64.13
2022-11-19T07:10:30.361Z,63.86
2022-11-19T07:12:09.700Z,63.81
2022-11-19T07:14:16.599Z,63.85
2022-11-19T07:15:49.334Z,63.69
2022-11-19T07:17:28.299Z,63.81
2022-11-19T07:19:23.882Z,63.50
2022-11-19T07:21:03.257Z,63.19
2022-11-19T07:22:26.183Z,63.56
2022-11-19T07:23:50.631Z,63.31
2022-11-19T07:25:17.850Z,63.49
2022-11-19T07:26:40.435Z,63.31
2022-11-19T07:28:12.948Z,63.60
2022-11-19T07:29:49.551Z,63.20
2022-11-19T07:31:20.348Z,63.38
2022-11-19T07:33:19.491Z,63.19
2022-11-19T07:34:46.491Z,63.27
2022-11-19T07:36:34.698Z,63.01
2022-11-19T07:38:04.295Z,62.92
2022-11-19T07:39:29.819Z,63.01
2022-11-19T07:40:56.363Z,63.33
2022-11-19T07:42:35.942Z,63.08
2022-11-19T07:44:02.521Z,63.11
2022-11-19T07:45:36.237Z,62.68
2022-11-19T07:46:58.633Z,63.03
2022-11-19T07:48:25.297Z,62.63
2022-11-19T07:49:51.235Z,62.62
2022-11-19T07:51:21.450Z,62.44
2022-11-19T07:52:46.212Z,62.39
2022-11-19T07:54:22.047Z,62.46
2022-11-19T07:55:51.444Z,62.48
2022-11-19T07:57:15.235Z,62.35
2022-11-19T07:58:37.564Z,62.37
2022-11-19T08:00:00.029Z,62.25
2022-11-19T08:01:24.717Z,62.16
2022-11-19T08:02:50.781Z,62.18
2022-11-19T08:04:14.420Z,62.07
2022-11-19T08:05:40.663Z,61.77
2022-11-19T08:07:45.588Z,61.83
2022-11-19T08:09:49.402Z,61.94
2022-11-19T08:11:49.057Z,60.39
2022-11-19T08:13:19.300Z,60.29
2022-11-19T08:14:41.631Z,60.81
2022-11-19T08:16:04.919Z,60.90
2022-11-19T08:17:47.863Z,60.97
2022-11-19T08:19:11.717Z,61.21
2022-11-19T08:20:38.858Z,60.90
2022-11-19T08:22:09.742Z,60.24
2022-11-19T08:23:39.473Z,59.33
2022-11-19T08:25:21.976Z,58.02
2022-11-19T08:26:55.562Z,56.42
2022-11-19T08:28:50.055Z,56.38
2022-11-19T08:30:27.296Z,55.21
2022-11-19T08:32:00.057Z,53.84
2022-11-19T08:33:24.796Z,52.11
2022-11-19T08:34:55.811Z,49.54
2022-11-19T08:36:24.312Z,47.59
2022-11-19T08:37:50.995Z,45.40
2022-11-19T08:39:13.610Z,42.98
2022-11-19T08:40:39.208Z,41.36
2022-11-19T08:42:18.384Z,40.26
2022-11-19T08:43:41.276Z,39.15
2022-11-19T08:45:08.702Z,38.30
2022-11-19T08:46:30.769Z,37.38
2022-11-19T08:47:53.025Z,36.66
2022-11-19T08:49:15.080Z,36.09
2022-11-19T08:50:37.283Z,35.40
2022-11-19T08:52:00.499Z,34.85
2022-11-19T08:53:22.700Z,34.51
2022-11-19T08:54:45.127Z,34.17
2022-11-19T08:56:14.000Z,33.77
2022-11-19T08:57:40.077Z,33.63
2022-11-19T08:59:06.239Z,33.50
2022-11-19T09:00:43.225Z,33.00
2022-11-19T09:02:08.247Z,32.66
2022-11-19T09:03:31.074Z,32.42
2022-11-19T09:04:56.192Z,31.90
2022-11-19T09:06:19.889Z,31.60
2022-11-19T09:07:42.035Z,31.55
2022-11-19T09:09:04.534Z,31.29
2022-11-19T09:10:27.308Z,31.06
2022-11-19T09:11:56.186Z,30.67
2022-11-19T09:13:21.545Z,30.41
2022-11-19T09:14:45.523Z,30.15
2022-11-19T09:16:08.911Z,29.80
2022-11-19T09:17:31.148Z,29.40
2022-11-19T09:18:53.547Z,29.18
2022-11-19T09:20:15.957Z,28.87
2022-11-19T09:21:38.475Z,28.86
2022-11-19T09:23:01.697Z,29.33
2022-11-19T09:24:24.042Z,29.83
2022-11-19T09:25:46.250Z,29.99
2022-11-19T09:27:08.561Z,30.19
2022-11-19T09:28:31.967Z,30.50
2022-11-19T09:29:55.683Z,30.86
2022-11-19T09:31:21.494Z,31.35
2022-11-19T09:32:51.306Z,31.61
2022-11-19T09:34:15.301Z,31.76
2022-11-19T09:35:38.016Z,32.01
2022-11-19T09:37:00.139Z,32.28
2022-11-19T09:38:22.208Z,32.48
2022-11-19T09:39:44.488Z,32.61
2022-11-19T09:41:39.843Z,32.95
2022-11-19T09:43:13.971Z,33.11
2022-11-19T09:44:52.048Z,33.59
2022-11-19T09:46:24.105Z,33.80
2022-11-19T09:48:08.299Z,34.04
2022-11-19T09:49:39.992Z,34.43
2022-11-19T09:51:05.942Z,34.60
2022-11-19T09:52:35.114Z,34.75
2022-11-19T09:54:02.352Z,35.15
2022-11-19T09:55:30.827Z,35.28
2022-11-19T09:56:59.256Z,35.80
2022-11-19T09:58:28.856Z,36.20
2022-11-19T09:59:57.753Z,36.40
2022-11-19T10:01:24.116Z,36.71
2022-11-19T10:02:46.302Z,36.91
2022-11-19T10:04:08.513Z,37.20
2022-11-19T10:05:40.026Z,37.50
2022-11-19T10:07:13.430Z,38.02
2022-11-19T10:08:49.815Z,38.32
2022-11-19T10:10:29.202Z,38.72
2022-11-19T10:12:03.295Z,39.06
2022-11-19T10:13:51.356Z,39.62
2022-11-19T10:15:23.682Z,39.85
2022-11-19T10:16:57.856Z,39.97
2022-11-19T10:18:32.533Z,39.82
2022-11-19T10:20:12.959Z,39.64
2022-11-19T10:21:41.228Z,39.39
2022-11-19T10:23:18.473Z,39.24
2022-11-19T10:24:49.298Z,39.22
2022-11-19T10:26:21.187Z,39.41
2022-11-19T10:27:47.609Z,39.87
2022-11-19T10:29:27.286Z,39.99
2022-11-19T10:30:57.214Z,40.17
2022-11-19T10:32:34.236Z,40.30
2022-11-19T10:34:12.341Z,40.54
2022-11-19T10:35:45.558Z,40.79
2022-11-19T10:37:17.016Z,41.29
2022-11-19T10:38:57.488Z,41.32
2022-11-19T10:40:26.238Z,41.52
2022-11-19T10:41:53.551Z,41.89
2022-11-19T10:43:26.575Z,42.14
2022-11-19T10:44:56.982Z,42.59
2022-11-19T10:46:40.569Z,43.03
2022-11-19T10:50:28.118Z,43.64
2022-11-19T10:52:02.554Z,44.00
2022-11-19T10:53:32.453Z,44.23
2022-11-19T10:55:22.934Z,44.50
2022-11-19T10:56:46.166Z,44.54
2022-11-19T10:58:24.848Z,44.86
2022-11-19T10:59:52.482Z,45.09
2022-11-19T11:01:27.242Z,45.23
2022-11-19T11:02:54.824Z,45.30
2022-11-19T11:04:29.642Z,45.39
2022-11-19T11:06:05.733Z,45.68
2022-11-19T11:07:56.056Z,45.74
2022-11-19T11:09:40.048Z,45.68
2022-11-19T11:11:04.614Z,45.86
2022-11-19T11:12:50.829Z,45.97
2022-11-19T11:14:41.895Z,45.83
2022-11-19T11:16:47.378Z,45.78
2022-11-19T11:18:47.771Z,46.08
2022-11-19T11:20:49.611Z,45.96
2022-11-19T11:22:15.327Z,45.72
2022-11-19T11:23:52.670Z,45.63
2022-11-19T11:25:46.542Z,45.31
2022-11-19T11:27:28.258Z,45.20
2022-11-19T11:29:00.821Z,45.07
2022-11-19T11:30:24.053Z,44.88
2022-11-19T11:31:53.157Z,44.93
2022-11-19T11:33:45.254Z,44.88
2022-11-19T11:35:37.871Z,44.66
2022-11-19T11:37:17.323Z,44.72
2022-11-19T11:39:00.329Z,44.56
2022-11-19T11:40:41.283Z,44.61
2022-11-19T11:42:17.992Z,44.47
2022-11-19T11:45:39.547Z,44.46
2022-11-19T11:47:05.246Z,44.28
2022-11-19T11:48:46.577Z,44.25
2022-11-19T11:50:50.745Z,44.38
2022-11-19T11:52:29.973Z,44.42
2022-11-19T11:54:24.105Z,44.52
2022-11-19T11:56:12.193Z,44.50
2022-11-19T11:57:38.448Z,44.42
2022-11-19T11:59:42.866Z,44.28
2022-11-19T12:01:24.558Z,44.08
2022-11-19T12:03:04.916Z,44.35
2022-11-19T12:04:30.175Z,43.98
2022-11-19T12:06:12.614Z,44.15
2022-11-19T12:07:56.415Z,44.17
2022-11-19T12:09:29.820Z,44.07
2022-11-19T12:10:59.012Z,43.97
2022-11-19T12:12:31.849Z,44.01
2022-11-19T12:13:59.999Z,43.90
2022-11-19T12:15:31.280Z,43.98
2022-11-19T12:17:14.560Z,43.92
2022-11-19T12:18:47.585Z,44.14
2022-11-19T12:20:25.263Z,43.97
2022-11-19T12:24:38.384Z,44.04
2022-11-19T12:26:13.185Z,43.76
2022-11-19T12:27:42.944Z,43.81
2022-11-19T12:29:21.109Z,43.76
2022-11-19T12:30:55.970Z,43.54
2022-11-19T12:32:31.439Z,43.61
2022-11-19T12:34:10.932Z,43.49
2022-11-19T12:35:51.245Z,43.71
2022-11-19T12:37:29.026Z,43.75
2022-11-19T12:39:03.263Z,43.76
2022-11-19T12:40:40.876Z,43.52
2022-11-19T12:42:27.759Z,43.82
2022-11-19T12:43:58.804Z,43.59
2022-11-19T12:45:36.415Z,43.84
2022-11-19T12:47:10.667Z,43.52
2022-11-19T12:48:49.987Z,43.70
2022-11-19T12:50:25.856Z,43.67
2022-11-19T12:52:00.765Z,43.82
2022-11-19T12:53:39.493Z,43.88
2022-11-19T12:55:10.534Z,43.86
2022-11-19T12:56:48.096Z,43.93
2022-11-19T12:58:20.063Z,43.96
2022-11-19T13:00:03.749Z,44.11
2022-11-19T13:01:28.927Z,44.19
2022-11-19T13:03:09.442Z,44.13
2022-11-19T13:04:42.696Z,44.25
2022-11-19T13:06:16.727Z,44.38
2022-11-19T13:07:55.784Z,44.33
2022-11-19T13:09:32.162Z,44.55
2022-11-19T13:11:09.005Z,44.55
2022-11-19T13:12:39.298Z,44.64
2022-11-19T13:14:08.278Z,44.74
2022-11-19T13:15:37.268Z,44.84
2022-11-19T13:17:01.544Z,44.76
2022-11-19T13:18:25.934Z,44.63
2022-11-19T13:19:53.427Z,44.70
2022-11-19T13:21:22.736Z,44.66
2022-11-19T13:22:48.914Z,44.61
2022-11-19T13:24:23.716Z,44.62
2022-11-19T13:25:52.204Z,44.80
2022-11-19T13:27:22.949Z,44.77
2022-11-19T13:28:51.729Z,44.86
2022-11-19T13:30:21.850Z,44.51
2022-11-19T13:31:48.969Z,44.57
2022-11-19T13:33:19.366Z,44.59
2022-11-19T13:34:49.610Z,44.85
2022-11-19T13:36:20.086Z,44.64
2022-11-19T13:37:51.685Z,44.74
2022-11-19T13:39:27.905Z,44.62
2022-11-19T13:40:55.672Z,44.75
2022-11-19T13:42:40.296Z,44.84
2022-11-19T13:44:24.930Z,44.96
2022-11-19T13:45:55.556Z,45.03
2022-11-19T13:47:25.043Z,45.33
2022-11-19T13:48:56.857Z,45.23
2022-11-19T13:50:24.087Z,45.48
2022-11-19T13:52:12.210Z,45.44
2022-11-19T13:53:40.301Z,45.54
2022-11-19T13:55:03.037Z,45.50
2022-11-19T13:56:38.319Z,45.57
2022-11-19T13:58:13.023Z,45.62
2022-11-19T13:59:40.966Z,45.69
2022-11-19T14:01:21.957Z,45.58
2022-11-19T14:03:18.547Z,45.51
2022-11-19T14:05:07.052Z,45.72
2022-11-19T14:06:46.063Z,45.83
2022-11-19T14:08:36.856Z,45.91
2022-11-19T14:10:10.626Z,46.09
2022-11-19T14:12:10.521Z,45.97
2022-11-19T14:13:47.235Z,45.98
2022-11-19T14:16:02.656Z,46.04
2022-11-19T14:17:59.708Z,46.10
2022-11-19T14:19:47.595Z,46.31
2022-11-19T14:22:11.426Z,46.49
2022-11-19T14:24:01.613Z,46.70
2022-11-19T14:26:01.140Z,46.79
2022-11-19T14:27:30.803Z,46.83
2022-11-19T14:28:54.433Z,46.86
2022-11-19T14:30:20.283Z,46.93
2022-11-19T14:32:15.803Z,47.02
2022-11-19T14:34:00.061Z,47.00
2022-11-19T14:35:45.103Z,47.27
2022-11-19T14:37:20.729Z,47.37
2022-11-19T14:38:48.986Z,47.41
2022-11-19T14:40:27.217Z,47.20
2022-11-19T14:42:17.652Z,47.44
2022-11-19T14:44:10.245Z,47.39
2022-11-19T14:45:38.427Z,47.40
2022-11-19T14:47:39.954Z,47.65
2022-11-19T14:49:23.055Z,47.38
2022-11-19T14:50:45.504Z,47.70
2022-11-19T14:52:23.212Z,47.58
2022-11-19T14:53:52.408Z,47.63
2022-11-19T14:55:23.001Z,47.85
2022-11-19T14:57:01.670Z,47.79
2022-11-19T14:58:32.424Z,48.04
2022-11-19T14:59:59.458Z,48.18
2022-11-19T15:01:23.884Z,48.16
2022-11-19T15:02:53.342Z,48.19
2022-11-19T15:04:20.258Z,48.33
2022-11-19T15:05:51.069Z,48.39
2022-11-19T15:07:20.713Z,48.64
2022-11-19T15:08:57.056Z,48.67
2022-11-19T15:10:51.618Z,48.63
2022-11-19T15:15:06.747Z,48.99
2022-11-19T15:16:40.820Z,48.90
2022-11-19T15:18:39.867Z,49.01
2022-11-19T15:20:33.296Z,49.19
2022-11-19T15:23:02.941Z,49.73
2022-11-19T15:25:34.450Z,49.43
2022-11-19T15:27:15.330Z,49.71
2022-11-19T15:29:08.142Z,49.87
2022-11-19T15:31:12.884Z,50.02
2022-11-19T15:33:19.257Z,50.16
2022-11-19T15:35:10.737Z,50.26
2022-11-19T15:36:39.813Z,50.53
2022-11-19T15:38:08.776Z,50.51
2022-11-19T15:39:39.843Z,50.81
2022-11-19T15:41:05.175Z,50.96
2022-11-19T15:42:35.856Z,51.04
2022-11-19T15:44:09.225Z,51.22
2022-11-19T15:46:12.085Z,51.09
2022-11-19T15:47:49.908Z,51.38
2022-11-19T15:51:38.867Z,51.17
2022-11-19T15:53:33.891Z,51.71
2022-11-19T15:55:28.439Z,51.50
2022-11-19T15:57:07.825Z,51.59
2022-11-19T16:02:14.355Z,51.90
2022-11-19T16:04:31.336Z,51.67
2022-11-19T16:06:32.298Z,51.76
2022-11-19T16:08:05.474Z,52.11
2022-11-19T16:09:30.053Z,51.90
2022-11-19T16:11:20.744Z,52.21
2022-11-19T16:13:15.548Z,52.21
2022-11-19T16:15:08.803Z,52.41
2022-11-19T16:16:51.073Z,52.36
2022-11-19T16:18:23.741Z,52.51
2022-11-19T16:19:45.869Z,52.21
2022-11-19T16:21:08.404Z,52.24
2022-11-19T16:22:33.022Z,52.54
2022-11-19T16:24:14.959Z,52.32
2022-11-19T16:25:41.064Z,52.49
2022-11-19T16:27:04.311Z,52.59
2022-11-19T16:28:30.690Z,52.92
2022-11-19T16:29:53.709Z,52.78
2022-11-19T16:31:16.441Z,53.02
2022-11-19T16:32:38.825Z,53.34
2022-11-19T16:34:01.240Z,53.26
2022-11-19T16:35:26.456Z,53.27
2022-11-19T16:36:52.428Z,53.39
2022-11-19T16:38:19.165Z,53.35
2022-11-19T16:39:43.517Z,53.32
2022-11-19T16:41:25.638Z,53.66
2022-11-19T16:42:54.008Z,53.56
2022-11-19T16:44:19.760Z,53.69
2022-11-19T16:45:47.437Z,53.84
2022-11-19T16:47:18.591Z,53.85
2022-11-19T16:49:01.530Z,53.74
2022-11-19T16:50:31.839Z,54.07
2022-11-19T16:51:54.679Z,54.05
2022-11-19T16:53:46.744Z,54.12
2022-11-19T16:55:40.475Z,53.96
2022-11-19T16:57:07.699Z,54.34
2022-11-19T16:58:30.181Z,54.26
2022-11-19T16:59:54.557Z,54.31
2022-11-19T17:01:34.308Z,54.38
2022-11-19T17:02:57.512Z,54.79
2022-11-19T17:04:21.933Z,54.65
2022-11-19T17:05:50.702Z,54.78
2022-11-19T17:07:31.459Z,54.69
2022-11-19T17:08:59.948Z,54.83
2022-11-19T17:10:37.242Z,54.88
2022-11-19T17:12:17.344Z,54.72
2022-11-19T17:13:42.378Z,54.78
2022-11-19T17:15:34.772Z,54.71
2022-11-19T17:16:58.961Z,54.69
2022-11-19T17:18:34.588Z,55.03
2022-11-19T17:19:58.245Z,55.25
2022-11-19T17:21:28.096Z,55.24
2022-11-19T17:22:50.645Z,55.07
2022-11-19T17:24:14.409Z,55.39
2022-11-19T17:25:37.425Z,55.60
2022-11-19T17:27:00.248Z,55.54
2022-11-19T17:28:38.271Z,55.79
2022-11-19T17:30:04.261Z,55.62
2022-11-19T17:31:28.539Z,55.79
2022-11-19T17:32:58.158Z,56.11
2022-11-19T17:34:33.278Z,56.22
2022-11-19T17:35:56.311Z,55.95
2022-11-19T17:37:22.035Z,56.09
2022-11-19T17:38:44.680Z,56.38
2022-11-19T17:40:09.630Z,56.23
2022-11-19T17:41:53.194Z,56.18
2022-11-19T17:43:34.806Z,56.28
2022-11-19T17:44:57.135Z,56.68
2022-11-19T17:46:21.870Z,56.39
2022-11-19T17:47:45.452Z,56.49
2022-11-19T17:49:10.576Z,56.61
2022-11-19T17:50:41.361Z,56.39
2022-11-19T17:52:20.383Z,56.56
2022-11-19T17:53:51.433Z,56.81
2022-11-19T17:55:43.184Z,56.87
2022-11-19T17:57:13.396Z,56.57
2022-11-19T17:58:46.486Z,56.88
2022-11-19T18:00:18.334Z,56.96
2022-11-19T18:01:54.330Z,56.73
2022-11-19T18:05:43.419Z,57.27
2022-11-19T18:07:12.394Z,57.25
2022-11-19T18:08:38.255Z,57.61
2022-11-19T18:10:10.412Z,57.61
2022-11-19T18:11:33.448Z,57.27
2022-11-19T18:12:56.049Z,57.53
2022-11-19T18:14:21.482Z,57.71
2022-11-19T18:15:43.994Z,58.06
2022-11-19T18:17:10.934Z,57.80
2022-11-19T18:18:35.351Z,57.88
2022-11-19T18:19:57.814Z,57.71
2022-11-19T18:21:21.692Z,57.90
2022-11-19T18:22:43.929Z,57.58
2022-11-19T18:24:05.294Z,57.72
2022-11-19T18:25:27.548Z,57.79
2022-11-19T18:26:49.461Z,57.64
2022-11-19T18:28:11.875Z,57.82
2022-11-19T18:29:34.165Z,57.90
2022-11-19T18:30:56.583Z,57.99
2022-11-19T18:32:20.069Z,57.92
2022-11-19T18:33:43.046Z,57.91
2022-11-19T18:35:05.698Z,58.01
2022-11-19T18:36:27.764Z,58.42
2022-11-19T18:37:50.418Z,58.19
2022-11-19T18:39:16.018Z,58.24
2022-11-19T18:40:42.376Z,58.00
2022-11-19T18:42:05.386Z,58.35
2022-11-19T18:43:45.507Z,58.26
2022-11-19T18:45:11.428Z,58.31
2022-11-19T18:46:34.323Z,58.63
2022-11-19T18:47:58.964Z,58.67
2022-11-19T18:49:24.457Z,58.58
2022-11-19T18:50:48.855Z,58.67
2022-11-19T18:52:15.547Z,58.81
2022-11-19T18:53:42.013Z,58.53
2022-11-19T18:55:05.684Z,58.84
2022-11-19T18:56:28.639Z,59.03
2022-11-19T18:57:50.995Z,59.04
2022-11-19T18:59:17.228Z,58.59
2022-11-19T19:00:42.655Z,59.27
2022-11-19T19:02:07.482Z,59.18
2022-11-19T19:03:37.842Z,58.84
2022-11-19T19:05:08.981Z,58.83
2022-11-19T19:06:35.808Z,59.13
2022-11-19T19:07:58.110Z,58.91
2022-11-19T19:09:21.505Z,58.91
2022-11-19T19:10:44.393Z,59.08
2022-11-19T19:12:18.513Z,59.27
2022-11-19T19:13:43.553Z,58.94
2022-11-19T19:15:06.986Z,59.02
2022-11-19T19:16:28.186Z,59.00
2022-11-19T19:17:53.353Z,59.13
2022-11-19T19:19:19.379Z,59.33
2022-11-19T19:20:43.266Z,59.35
2022-11-19T19:22:06.352Z,59.61
2022-11-19T19:23:32.922Z,59.65
2022-11-19T19:24:58.341Z,59.72
2022-11-19T19:26:20.081Z,59.79
2022-11-19T19:27:42.233Z,59.61
2022-11-19T19:29:05.951Z,59.84
2022-11-19T19:30:28.261Z,59.68
2022-11-19T19:31:52.924Z,59.46
2022-11-19T19:33:15.156Z,59.94
2022-11-19T19:34:38.751Z,59.55
2022-11-19T19:36:05.568Z,59.95
2022-11-19T19:37:28.149Z,60.13
2022-11-19T19:38:50.960Z,60.02
2022-11-19T19:40:14.483Z,59.88
2022-11-19T19:41:36.701Z,60.21
2022-11-19T19:42:59.127Z,59.79
2022-11-19T19:44:21.697Z,60.15
2022-11-19T19:45:44.224Z,60.17
2022-11-19T19:47:07.096Z,60.09
2022-11-19T19:48:29.838Z,60.15
2022-11-19T19:49:53.910Z,60.36
2022-11-19T19:51:17.481Z,60.44
2022-11-19T19:52:40.172Z,60.41
2022-11-19T19:54:04.968Z,60.64
2022-11-19T19:55:28.003Z,60.46
2022-11-19T19:56:54.139Z,60.36
2022-11-19T19:58:16.177Z,60.68
2022-11-19T19:59:38.655Z,60.43
2022-11-19T20:01:08.597Z,60.48
2022-11-19T20:02:31.314Z,60.88